Miami, Florida
Traffic Map
Current Weather Conditions
Miami, Florida
Broken Clouds
Broken Clouds
84°
Feels Like: 91°
Wind Chill: 84° Ceiling: 17000
Heat Index: 91° Visibility: 10mi
Dew Point: 74° Wind: 5mph
Humidity: 72% Direction: 230° (SW)
Pressure: 29.97in Gusts: 0mph
Raw Report DataKMIA 191353Z 23004KT 10SM FEW025 BKN170 BKN300 29/23 A2997 RMK AO2 SLP147 CB DSNT E-SE-SW MOV E T02890233
Traffic Incident Summary
Active as of:
Severity:
Category:
InformationThere was an issue retrieving the traffic information for this location. Please try a different location or try again shortly.
Advertisements
Track Severe Weather on mobile